Time;durP1;ratioP1;P1;durP2;ratioP2;P2;SDS_P1;SDS_P2;PMS_P1;PMS_P2;Temp;Humidity;BMP_temperature;BMP_pressure;BME280_temperature;BME280_humidity;BME280_pressure;Samples;Min_cycle;Max_cycle;Signal;HPM_P1;HPM_P2
2022/10/14 00:00:28;;;;;;;2.75;0.80;;;21.00;74.90;;;;;;5035840;28;20043;-62
2022/10/14 00:02:56;;;;;;;1.98;0.90;;;21.00;73.90;;;;;;5048840;28;20027;-62
2022/10/14 00:05:24;;;;;;;2.80;0.70;;;21.10;73.20;;;;;;5049552;28;20032;-62
2022/10/14 00:07:53;;;;;;;1.33;0.60;;;21.10;72.10;;;;;;5047750;28;20086;-62
2022/10/14 00:10:21;;;;;;;1.05;0.50;;;21.10;70.80;;;;;;5064915;28;20403;-62
2022/10/14 00:12:49;;;;;;;1.25;0.60;;;21.10;70.60;;;;;;5050068;28;20100;-62
2022/10/14 00:15:17;;;;;;;1.15;0.57;;;21.10;69.70;;;;;;5064779;28;20032;-62
2022/10/14 00:17:46;;;;;;;1.00;0.60;;;21.10;68.80;;;;;;5030755;28;20025;-62
2022/10/14 00:20:14;;;;;;;1.38;0.68;;;21.10;68.30;;;;;;5029703;28;20021;-62
2022/10/14 00:22:43;;;;;;;1.55;0.70;;;21.10;67.70;;;;;;5029263;28;20116;-61
2022/10/14 00:25:11;;;;;;;2.45;0.68;;;21.10;67.30;;;;;;5029579;28;20049;-61
2022/10/14 00:27:39;;;;;;;0.70;0.55;;;21.10;66.90;;;;;;5029422;28;20030;-61
2022/10/14 00:30:11;;;;;;;0.97;0.60;;;21.20;66.70;;;;;;5044435;28;20363;-61
2022/10/14 00:32:41;;;;;;;3.13;0.80;;;21.20;66.40;;;;;;5027661;28;20032;-62
2022/10/14 00:35:12;;;;;;;1.92;0.70;;;21.20;66.50;;;;;;5028290;28;20078;-62
2022/10/14 00:37:40;;;;;;;0.77;0.43;;;21.30;66.30;;;;;;5029420;28;20079;-61
2022/10/14 00:40:09;;;;;;;0.57;0.50;;;21.30;66.40;;;;;;5028255;28;20065;-62
2022/10/14 00:42:37;;;;;;;1.33;0.65;;;21.30;66.10;;;;;;5027611;28;20061;-62
2022/10/14 00:45:12;;;;;;;1.55;0.75;;;21.30;66.00;;;;;;5028024;28;20041;-62
2022/10/14 00:47:42;;;;;;;0.80;0.50;;;21.30;65.20;;;;;;5044264;28;20055;-62
2022/10/14 00:50:11;;;;;;;2.67;0.70;;;21.30;64.40;;;;;;5029354;28;20351;-62
2022/10/14 00:52:39;;;;;;;0.90;0.60;;;21.30;64.30;;;;;;5029226;28;20029;-62
2022/10/14 00:55:15;;;;;;;1.58;0.60;;;21.30;64.50;;;;;;5028069;28;20018;-62
2022/10/14 00:57:44;;;;;;;0.77;0.50;;;21.30;63.50;;;;;;5027836;28;20059;-62
2022/10/14 01:00:18;;;;;;;0.88;0.63;;;21.40;63.10;;;;;;5031904;28;20029;-63
2022/10/14 01:02:48;;;;;;;0.90;0.52;;;21.40;62.10;;;;;;5049262;28;20056;-62
2022/10/14 01:05:22;;;;;;;3.70;0.68;;;21.40;62.40;;;;;;5048059;28;20033;-60
2022/10/14 01:08:27;;;;;;;0.75;0.52;;;21.40;62.20;;;;;;5049114;28;20029;-62
2022/10/14 01:11:07;;;;;;;1.20;0.50;;;21.50;61.60;;;;;;5033617;28;20033;-62
2022/10/14 01:13:45;;;;;;;1.45;1.00;;;21.40;60.90;;;;;;5049136;28;20098;-62
2022/10/14 01:16:40;;;;;;;1.45;0.70;;;21.50;60.60;;;;;;5033930;28;20158;-61
2022/10/14 01:19:12;;;;;;;1.88;0.70;;;21.50;60.20;;;;;;5045562;28;20392;-61
2022/10/14 01:21:54;;;;;;;1.27;0.60;;;21.50;59.90;;;;;;5032683;28;20151;-61
2022/10/14 01:24:39;;;;;;;2.08;0.82;;;21.50;59.70;;;;;;5033044;28;20037;-62
2022/10/14 01:27:33;;;;;;;1.50;0.60;;;21.50;59.50;;;;;;5031752;28;20026;-60
2022/10/14 01:30:08;;;;;;;2.10;0.80;;;21.50;59.10;;;;;;5038773;28;20399;-62
2022/10/14 01:33:02;;;;;;;1.65;0.77;;;21.50;58.60;;;;;;5050327;28;20021;-62
2022/10/14 01:35:56;;;;;;;1.45;0.70;;;21.50;58.90;;;;;;5050976;28;20113;-62
2022/10/14 01:38:32;;;;;;;3.33;0.70;;;21.50;58.50;;;;;;5052517;28;20483;-61
2022/10/14 01:41:06;;;;;;;1.08;0.60;;;21.50;59.20;;;;;;5050803;28;20108;-62
2022/10/14 01:43:35;;;;;;;1.98;0.65;;;21.50;59.10;;;;;;5050606;28;20044;-61
2022/10/14 01:46:06;;;;;;;1.13;0.70;;;21.50;58.20;;;;;;5050201;28;20048;-62
2022/10/14 01:48:37;;;;;;;1.70;0.77;;;21.50;58.70;;;;;;5050285;28;20039;-62
2022/10/14 01:51:15;;;;;;;1.83;0.70;;;21.50;58.60;;;;;;5050725;28;20091;-62
2022/10/14 01:53:49;;;;;;;3.05;0.98;;;21.50;56.50;;;;;;5051869;28;20021;-61
2022/10/14 01:56:18;;;;;;;2.72;0.82;;;21.50;55.80;;;;;;5051072;28;20547;-61
2022/10/14 01:58:47;;;;;;;2.50;0.70;;;21.60;56.10;;;;;;5050146;28;20025;-61
2022/10/14 02:01:17;;;;;;;2.03;0.80;;;21.60;56.40;;;;;;5063474;28;20029;-61
2022/10/14 02:03:47;;;;;;;1.58;0.60;;;21.60;56.30;;;;;;5050232;28;20033;-61
2022/10/14 02:06:28;;;;;;;2.47;0.80;;;21.60;56.40;;;;;;5050689;28;20036;-62
2022/10/14 02:09:21;;;;;;;6.07;1.30;;;21.60;55.70;;;;;;5042277;28;20025;-61
2022/10/14 02:12:31;;;;;;;3.20;1.00;;;21.60;55.40;;;;;;5047347;28;20083;-61
2022/10/14 02:15:15;;;;;;;3.85;1.08;;;21.60;55.30;;;;;;5047073;28;20549;-61
2022/10/14 02:18:11;;;;;;;0.90;0.57;;;21.60;53.70;;;;;;5046517;28;20033;-61
2022/10/14 02:21:00;;;;;;;2.47;0.82;;;21.60;52.70;;;;;;5046731;28;20187;-61
2022/10/14 02:23:38;;;;;;;4.55;1.00;;;21.70;52.60;;;;;;5046569;28;20065;-61
2022/10/14 02:26:10;;;;;;;2.03;0.80;;;21.70;52.90;;;;;;5046725;28;20098;-61
2022/10/14 02:28:44;;;;;;;3.05;1.00;;;21.60;52.40;;;;;;5031354;28;20393;-61
2022/10/14 02:31:16;;;;;;;4.15;0.93;;;21.60;51.80;;;;;;5045973;28;20029;-62
2022/10/14 02:33:55;;;;;;;4.90;0.82;;;21.60;51.30;;;;;;5046393;28;20045;-61
2022/10/14 02:36:24;;;;;;;3.65;0.77;;;21.60;51.20;;;;;;5031374;28;20021;-61
2022/10/14 02:38:55;;;;;;;3.05;0.90;;;21.60;51.20;;;;;;5029689;28;20026;-62
2022/10/14 02:41:30;;;;;;;1.58;0.70;;;21.60;50.90;;;;;;5058965;28;20051;-61
2022/10/14 02:44:00;;;;;;;1.90;0.70;;;21.60;50.60;;;;;;5049270;28;20044;-62
2022/10/14 02:46:29;;;;;;;1.27;0.60;;;21.60;50.70;;;;;;5065738;28;20036;-61
2022/10/14 02:48:57;;;;;;;2.60;1.05;;;21.60;51.20;;;;;;5047582;28;20499;-62
2022/10/14 02:51:25;;;;;;;1.45;0.65;;;21.60;51.20;;;;;;5030913;28;20025;-62
2022/10/14 02:53:55;;;;;;;1.30;0.60;;;21.60;50.30;;;;;;5029523;28;20025;-61
2022/10/14 02:56:25;;;;;;;3.42;0.80;;;21.60;50.50;;;;;;5044592;28;20557;-61
2022/10/14 02:58:54;;;;;;;1.05;0.55;;;21.60;49.40;;;;;;5049261;28;20052;-61
2022/10/14 03:01:23;;;;;;;1.40;0.65;;;21.60;48.00;;;;;;5065151;28;20091;-62
2022/10/14 03:03:52;;;;;;;1.55;0.70;;;21.60;47.50;;;;;;5048763;28;20413;-61
2022/10/14 03:06:20;;;;;;;1.92;0.70;;;21.70;46.90;;;;;;5049109;28;20025;-61
2022/10/14 03:08:48;;;;;;;2.05;0.50;;;21.70;47.40;;;;;;5065924;28;20029;-61
2022/10/14 03:11:16;;;;;;;2.03;0.70;;;21.70;47.50;;;;;;5033612;28;20021;-62
2022/10/14 03:13:46;;;;;;;2.53;0.70;;;21.70;46.50;;;;;;5045945;28;20030;-62
2022/10/14 03:16:14;;;;;;;3.70;0.70;;;21.70;47.10;;;;;;5045283;28;20091;-61
2022/10/14 03:18:45;;;;;;;2.08;0.82;;;21.70;46.10;;;;;;5045581;28;20549;-61
2022/10/14 03:21:22;;;;;;;1.23;0.60;;;21.70;45.20;;;;;;5045409;28;20048;-62
2022/10/14 03:23:51;;;;;;;1.80;0.60;;;21.60;44.80;;;;;;5028784;28;20041;-61
2022/10/14 03:26:25;;;;;;;2.70;0.85;;;21.70;44.10;;;;;;5048003;28;20029;-61
2022/10/14 03:28:57;;;;;;;1.63;0.70;;;21.70;43.10;;;;;;5048860;28;20032;-62
2022/10/14 03:31:35;;;;;;;2.60;0.60;;;21.70;42.40;;;;;;5048469;28;20028;-61
2022/10/14 03:34:19;;;;;;;1.35;0.60;;;21.70;40.80;;;;;;5049274;28;20029;-62
2022/10/14 03:36:52;;;;;;;1.17;0.60;;;21.70;40.70;;;;;;5048567;28;20029;-61
2022/10/14 03:39:21;;;;;;;1.77;0.70;;;21.70;41.10;;;;;;5044528;28;20045;-61
2022/10/14 03:41:52;;;;;;;2.40;0.70;;;21.70;41.40;;;;;;5028993;28;20362;-61
2022/10/14 03:44:29;;;;;;;2.33;0.70;;;21.70;41.60;;;;;;5044038;28;20129;-61
2022/10/14 03:47:17;;;;;;;1.70;0.68;;;21.80;41.80;;;;;;5028564;28;20033;-61
2022/10/14 03:49:47;;;;;;;1.52;0.68;;;21.70;42.00;;;;;;5046306;28;20053;-61
2022/10/14 03:52:29;;;;;;;2.17;0.90;;;21.80;42.20;;;;;;5044994;28;20025;-61
2022/10/14 03:55:11;;;;;;;2.30;0.75;;;21.80;42.00;;;;;;5052193;28;20099;-61
2022/10/14 03:57:43;;;;;;;1.88;0.70;;;21.80;41.70;;;;;;5030747;28;20182;-61
2022/10/14 04:00:12;;;;;;;0.77;0.57;;;21.80;41.20;;;;;;5029983;28;20499;-61
2022/10/14 04:02:43;;;;;;;2.20;0.75;;;21.90;41.30;;;;;;5029822;28;20378;-62
2022/10/14 04:05:33;;;;;;;2.45;0.70;;;21.90;41.50;;;;;;5045033;28;20134;-61
2022/10/14 04:08:09;;;;;;;1.15;0.60;;;21.90;41.70;;;;;;5044818;28;20026;-61
2022/10/14 04:10:40;;;;;;;3.17;0.73;;;21.90;42.80;;;;;;5044460;28;20097;-61
2022/10/14 04:13:12;;;;;;;1.23;0.57;;;21.90;43.20;;;;;;5045006;28;20087;-61
2022/10/14 04:15:41;;;;;;;1.33;0.73;;;21.90;43.20;;;;;;5044281;28;20032;-61
2022/10/14 04:18:21;;;;;;;1.88;0.70;;;22.00;44.50;;;;;;5044449;28;20496;-62
2022/10/14 04:20:53;;;;;;;1.27;0.60;;;21.90;44.30;;;;;;5044902;28;20040;-62
2022/10/14 04:23:24;;;;;;;2.20;0.70;;;21.90;44.40;;;;;;5044232;28;20041;-60
2022/10/14 04:25:57;;;;;;;1.77;0.70;;;21.90;44.90;;;;;;5051517;28;20087;-61
2022/10/14 04:28:26;;;;;;;1.92;0.65;;;21.90;44.80;;;;;;5047079;28;20021;-61
2022/10/14 04:31:04;;;;;;;1.55;0.60;;;21.90;45.00;;;;;;5063203;28;20025;-61
2022/10/14 04:33:44;;;;;;;1.27;0.65;;;21.90;45.00;;;;;;5048008;28;20120;-61
2022/10/14 04:36:20;;;;;;;2.55;0.93;;;21.80;44.70;;;;;;5047888;28;20029;-62
2022/10/14 04:38:52;;;;;;;2.03;0.70;;;21.90;45.20;;;;;;5064720;28;20116;-62
2022/10/14 04:41:21;;;;;;;3.65;0.73;;;21.90;45.90;;;;;;5047796;28;20380;-62
2022/10/14 04:43:50;;;;;;;1.73;0.70;;;21.80;45.50;;;;;;5031436;28;20092;-62
2022/10/14 04:46:37;;;;;;;2.65;0.88;;;21.80;46.30;;;;;;5041362;28;20061;-61
2022/10/14 04:49:09;;;;;;;1.17;0.63;;;21.80;45.70;;;;;;5029018;28;20079;-61
2022/10/14 04:51:45;;;;;;;2.55;0.80;;;21.70;46.00;;;;;;5028073;28;20052;-61
2022/10/14 04:54:19;;;;;;;2.17;0.75;;;21.70;46.20;;;;;;5031688;28;20045;-61
2022/10/14 04:56:54;;;;;;;2.00;0.80;;;21.70;46.20;;;;;;5018215;28;20040;-61
2022/10/14 04:59:22;;;;;;;2.00;0.80;;;21.70;46.60;;;;;;5052926;28;20035;-61
2022/10/14 05:01:59;;;;;;;2.80;1.05;;;21.70;46.60;;;;;;5050619;28;20488;-61
2022/10/14 05:04:39;;;;;;;1.25;0.60;;;21.70;47.00;;;;;;5051547;28;20480;-61
2022/10/14 05:07:08;;;;;;;1.90;0.75;;;21.70;47.00;;;;;;5051227;28;20060;-60
2022/10/14 05:09:38;;;;;;;2.45;0.88;;;21.70;46.80;;;;;;5034927;28;20033;-62
2022/10/14 05:12:18;;;;;;;3.13;0.80;;;21.80;47.80;;;;;;5043836;28;20113;-62
2022/10/14 05:14:51;;;;;;;1.67;0.77;;;21.70;46.80;;;;;;5048015;28;20029;-61
2022/10/14 05:17:26;;;;;;;2.25;0.80;;;21.80;46.80;;;;;;5047195;28;20053;-62
2022/10/14 05:19:55;;;;;;;1.55;0.70;;;21.80;46.90;;;;;;5047769;28;20036;-61
2022/10/14 05:22:26;;;;;;;1.98;0.70;;;21.80;46.90;;;;;;5047644;28;20025;-62
2022/10/14 05:24:54;;;;;;;4.70;0.88;;;21.80;47.00;;;;;;5047690;28;20052;-61
2022/10/14 05:27:22;;;;;;;1.00;0.70;;;21.80;46.90;;;;;;5057990;28;20027;-61
2022/10/14 05:29:51;;;;;;;2.67;0.70;;;21.80;47.70;;;;;;5067438;28;20067;-61
2022/10/14 05:32:22;;;;;;;2.85;0.88;;;21.80;47.60;;;;;;5050517;28;20388;-61
2022/10/14 05:34:53;;;;;;;2.28;0.85;;;21.70;47.50;;;;;;5051036;28;20028;-62
2022/10/14 05:37:31;;;;;;;1.63;0.70;;;21.70;48.70;;;;;;5067424;28;20364;-61
2022/10/14 05:40:00;;;;;;;2.88;0.70;;;21.70;48.50;;;;;;5050854;28;20123;-60
2022/10/14 05:42:30;;;;;;;4.80;0.90;;;21.70;48.20;;;;;;5039719;28;20140;-61
2022/10/14 05:44:59;;;;;;;6.00;0.88;;;21.70;47.20;;;;;;5050722;28;20033;-61
2022/10/14 05:47:33;;;;;;;2.90;1.00;;;21.70;46.90;;;;;;5049887;28;20029;-61
2022/10/14 05:50:12;;;;;;;4.05;0.90;;;21.70;46.50;;;;;;5050562;28;20029;-62
2022/10/14 05:52:44;;;;;;;2.03;0.90;;;21.70;46.60;;;;;;5050504;28;20428;-62
2022/10/14 05:55:19;;;;;;;4.00;0.85;;;21.70;46.00;;;;;;5051068;28;20040;-61
2022/10/14 05:57:48;;;;;;;3.13;0.80;;;21.80;46.00;;;;;;5050680;28;20021;-61
2022/10/14 06:00:19;;;;;;;2.47;0.90;;;21.80;46.20;;;;;;5050650;28;20020;-60
2022/10/14 06:02:52;;;;;;;4.22;0.98;;;21.80;45.60;;;;;;5050090;28;20098;-61
2022/10/14 06:05:20;;;;;;;2.33;0.88;;;21.80;45.40;;;;;;5049749;28;20033;-62
2022/10/14 06:07:49;;;;;;;2.10;0.95;;;21.90;45.40;;;;;;5067576;28;20036;-61
2022/10/14 06:10:17;;;;;;;2.60;0.80;;;21.90;45.70;;;;;;5047252;28;20058;-61
2022/10/14 06:12:46;;;;;;;2.75;0.88;;;21.90;46.00;;;;;;5050693;28;20071;-61
2022/10/14 06:15:14;;;;;;;2.80;0.90;;;21.90;46.10;;;;;;5050233;28;20368;-60
2022/10/14 06:17:42;;;;;;;1.75;0.80;;;21.90;45.80;;;;;;5066647;28;20021;-62
2022/10/14 06:20:11;;;;;;;2.65;0.80;;;21.90;46.00;;;;;;5050464;28;20040;-61
2022/10/14 06:22:39;;;;;;;2.35;0.88;;;21.90;46.20;;;;;;5051283;28;20048;-61
2022/10/14 06:25:08;;;;;;;2.72;1.00;;;21.90;46.40;;;;;;5051299;28;20123;-61
2022/10/14 06:27:36;;;;;;;2.55;0.80;;;21.90;46.30;;;;;;5060742;28;20020;-61
2022/10/14 06:30:08;;;;;;;2.33;0.70;;;21.90;46.40;;;;;;5031545;28;20032;-61
2022/10/14 06:32:37;;;;;;;3.83;0.82;;;21.90;47.10;;;;;;5045901;28;20021;-61
2022/10/14 06:35:05;;;;;;;3.83;0.80;;;21.90;47.20;;;;;;5031371;28;20067;-61
2022/10/14 06:37:34;;;;;;;3.00;1.00;;;21.80;47.20;;;;;;5046259;28;20030;-62
2022/10/14 06:40:02;;;;;;;2.83;0.95;;;21.90;47.10;;;;;;5046723;28;20036;-61
2022/10/14 06:42:33;;;;;;;2.28;0.80;;;21.80;47.30;;;;;;5030770;28;20345;-61
2022/10/14 06:45:04;;;;;;;2.03;0.80;;;21.80;47.60;;;;;;5046393;28;20056;-61
2022/10/14 06:47:33;;;;;;;2.90;0.90;;;21.80;47.40;;;;;;5030083;28;20029;-62
2022/10/14 06:50:01;;;;;;;2.42;0.80;;;21.70;47.80;;;;;;5029878;28;20025;-61
2022/10/14 06:52:29;;;;;;;3.63;0.88;;;21.70;48.20;;;;;;5045708;28;20060;-61
2022/10/14 06:55:00;;;;;;;2.03;0.82;;;21.70;47.90;;;;;;5062720;28;20026;-61
2022/10/14 06:57:29;;;;;;;2.80;1.02;;;21.70;47.90;;;;;;5032723;28;20484;-59
2022/10/14 06:59:57;;;;;;;1.95;0.80;;;21.70;48.60;;;;;;5040416;28;20026;-60
2022/10/14 07:02:26;;;;;;;3.67;0.80;;;21.70;49.10;;;;;;5028621;28;20099;-60
2022/10/14 07:04:54;;;;;;;3.28;0.90;;;21.70;49.60;;;;;;5050549;28;20037;-60
2022/10/14 07:07:23;;;;;;;10.35;1.20;;;21.70;50.00;;;;;;5048136;28;20434;-59
2022/10/14 07:09:51;;;;;;;3.10;1.00;;;21.70;50.80;;;;;;5045736;28;20099;-60
2022/10/14 07:12:22;;;;;;;2.83;0.88;;;21.80;51.10;;;;;;5030824;28;20096;-59
2022/10/14 07:14:51;;;;;;;1.75;0.80;;;21.80;51.10;;;;;;5045553;28;20105;-59
2022/10/14 07:17:19;;;;;;;3.03;0.95;;;21.80;51.20;;;;;;5034999;28;20096;-60
2022/10/14 07:19:47;;;;;;;5.57;1.00;;;21.90;51.20;;;;;;5050828;28;20032;-60
2022/10/14 07:22:16;;;;;;;1.95;0.77;;;21.90;51.70;;;;;;5064604;28;20025;-60
2022/10/14 07:24:44;;;;;;;2.55;0.80;;;21.90;52.20;;;;;;5050221;28;20044;-59
2022/10/14 07:27:14;;;;;;;5.75;1.08;;;22.00;51.90;;;;;;5035907;28;20104;-58
2022/10/14 07:29:43;;;;;;;3.78;1.20;;;22.00;52.10;;;;;;5030379;28;20103;-58
2022/10/14 07:32:11;;;;;;;2.80;1.00;;;22.10;53.40;;;;;;5044333;28;20511;-59
2022/10/14 07:34:40;;;;;;;4.45;0.95;;;22.00;54.10;;;;;;5035361;28;20053;-58
2022/10/14 07:37:08;;;;;;;4.57;1.10;;;22.00;52.10;;;;;;5048826;28;20037;-59
2022/10/14 07:39:36;;;;;;;2.80;0.98;;;22.00;51.90;;;;;;5052578;28;20032;-58
2022/10/14 07:42:04;;;;;;;4.38;1.30;;;21.90;51.20;;;;;;5027999;28;20053;-57
2022/10/14 07:44:33;;;;;;;4.88;1.65;;;21.90;50.80;;;;;;5028650;28;20033;-57
2022/10/14 07:47:06;;;;;;;4.15;1.30;;;21.90;50.20;;;;;;5028868;28;20141;-57
2022/10/14 07:49:34;;;;;;;3.25;1.30;;;21.90;49.70;;;;;;5035834;28;20029;-57
2022/10/14 07:52:02;;;;;;;3.40;1.10;;;21.80;49.50;;;;;;5048226;28;20117;-56
2022/10/14 07:54:32;;;;;;;2.90;1.05;;;21.80;49.40;;;;;;5030327;28;20647;-55
2022/10/14 07:56:59;;;;;;;2.50;0.80;;;21.80;49.30;;;;;;5047867;28;20030;-55
2022/10/14 07:59:28;;;;;;;1.95;0.80;;;21.70;48.80;;;;;;5045076;28;20037;-56
2022/10/14 08:01:56;;;;;;;1.73;0.80;;;21.70;48.80;;;;;;5028682;28;20017;-55
2022/10/14 08:04:25;;;;;;;3.97;0.85;;;21.70;48.70;;;;;;5044905;28;20439;-55
2022/10/14 08:06:53;;;;;;;2.58;0.93;;;21.70;48.90;;;;;;5049201;28;20021;-56
2022/10/14 08:09:21;;;;;;;4.18;1.10;;;21.70;49.00;;;;;;5062047;28;20403;-56
2022/10/14 08:11:49;;;;;;;2.58;0.90;;;21.70;49.20;;;;;;5030065;28;20044;-55
2022/10/14 08:14:18;;;;;;;2.28;0.90;;;21.70;49.30;;;;;;5038271;28;20032;-56
2022/10/14 08:16:46;;;;;;;5.50;1.10;;;21.60;49.40;;;;;;5049577;28;20021;-55
2022/10/14 08:19:15;;;;;;;3.75;1.10;;;21.60;49.90;;;;;;5050149;28;20173;-56
2022/10/14 08:21:43;;;;;;;2.42;0.90;;;21.60;50.00;;;;;;5064683;28;20471;-55
2022/10/14 08:24:11;;;;;;;3.33;0.95;;;21.60;50.10;;;;;;5045502;28;20033;-55
2022/10/14 08:26:49;;;;;;;4.65;1.38;;;21.60;50.20;;;;;;5029774;28;20025;-55
2022/10/14 08:29:17;;;;;;;5.68;1.05;;;21.60;50.80;;;;;;5039544;28;20022;-55
2022/10/14 08:31:48;;;;;;;3.60;1.17;;;21.50;51.00;;;;;;5049146;28;20025;-55
2022/10/14 08:34:19;;;;;;;4.30;1.27;;;21.50;51.00;;;;;;5044727;28;20017;-56
2022/10/14 08:36:49;;;;;;;4.07;1.33;;;21.50;51.20;;;;;;5044290;28;20029;-56
2022/10/14 08:39:20;;;;;;;4.00;1.10;;;21.50;51.30;;;;;;5041327;28;20480;-56
2022/10/14 08:41:58;;;;;;;3.53;1.10;;;21.50;51.50;;;;;;5059433;28;20373;-57
2022/10/14 08:44:44;;;;;;;3.00;1.00;;;21.50;51.60;;;;;;5051213;28;20041;-57
2022/10/14 08:47:14;;;;;;;5.35;1.00;;;21.50;51.80;;;;;;5040342;28;20021;-57
2022/10/14 08:50:08;;;;;;;4.47;0.90;;;21.40;51.60;;;;;;5048495;28;20467;-56
2022/10/14 08:52:45;;;;;;;3.50;1.25;;;21.40;52.30;;;;;;5068081;28;20039;-57
2022/10/14 08:55:27;;;;;;;3.60;1.10;;;21.40;52.10;;;;;;5067907;28;20063;-57
2022/10/14 08:58:08;;;;;;;3.03;1.10;;;21.40;52.00;;;;;;5052997;28;20021;-58
2022/10/14 09:00:36;;;;;;;3.90;1.50;;;21.40;51.50;;;;;;5052574;28;20479;-58
2022/10/14 09:03:25;;;;;;;4.97;1.50;;;21.40;51.90;;;;;;5052206;28;20025;-57
2022/10/14 09:06:02;;;;;;;7.25;1.20;;;21.40;52.10;;;;;;5048959;28;20037;-58
2022/10/14 09:08:44;;;;;;;4.22;1.10;;;21.40;52.30;;;;;;5047356;28;20017;-59
2022/10/14 09:11:18;;;;;;;4.80;1.02;;;21.40;52.20;;;;;;5032542;28;20067;-58
2022/10/14 09:13:50;;;;;;;5.93;1.27;;;21.40;51.90;;;;;;5031844;28;20109;-58
2022/10/14 09:16:39;;;;;;;3.47;1.02;;;21.40;51.70;;;;;;5031388;28;20056;-58
2022/10/14 09:19:23;;;;;;;4.13;0.93;;;21.40;51.70;;;;;;5014321;28;20041;-59
2022/10/14 09:21:56;;;;;;;3.65;1.10;;;21.30;51.20;;;;;;5032437;28;20029;-59
2022/10/14 09:24:37;;;;;;;3.40;1.15;;;21.30;51.00;;;;;;5032218;28;20034;-59
2022/10/14 09:27:11;;;;;;;2.20;0.82;;;21.30;51.40;;;;;;5032435;28;20029;-58
2022/10/14 09:29:58;;;;;;;2.92;0.90;;;21.30;51.30;;;;;;5047934;28;20033;-59
2022/10/14 09:32:32;;;;;;;3.92;1.00;;;21.30;50.40;;;;;;5046419;28;20041;-59
2022/10/14 09:35:01;;;;;;;3.78;1.15;;;21.30;50.20;;;;;;5047466;28;20025;-59
2022/10/14 09:37:32;;;;;;;2.35;0.90;;;21.20;49.90;;;;;;5033359;28;20018;-58
2022/10/14 09:40:08;;;;;;;2.25;0.80;;;21.20;49.90;;;;;;5045609;28;20167;-58
2022/10/14 09:42:55;;;;;;;4.93;1.30;;;21.20;50.50;;;;;;5037118;28;20032;-58
2022/10/14 09:45:25;;;;;;;3.58;1.10;;;21.20;49.90;;;;;;5066813;28;20087;-59
2022/10/14 09:47:55;;;;;;;3.45;1.10;;;21.20;50.20;;;;;;5051606;28;20464;-59
2022/10/14 09:50:35;;;;;;;3.22;1.10;;;21.20;50.40;;;;;;5051873;28;20025;-59
2022/10/14 09:53:28;;;;;;;3.40;1.30;;;21.20;50.50;;;;;;5046511;28;20032;-58
2022/10/14 09:55:59;;;;;;;4.55;1.40;;;21.20;50.60;;;;;;5051860;28;20033;-58
2022/10/14 09:58:51;;;;;;;7.53;2.85;;;21.20;50.80;;;;;;5050455;28;20079;-58
2022/10/14 10:01:22;;;;;;;5.35;1.05;;;21.20;50.90;;;;;;5044622;28;20025;-59
2022/10/14 10:03:52;;;;;;;4.53;1.25;;;21.20;50.90;;;;;;5046504;28;20087;-58
2022/10/14 10:06:24;;;;;;;2.67;1.08;;;21.10;51.10;;;;;;5047279;28;20032;-58
2022/10/14 10:08:55;;;;;;;4.68;1.40;;;21.10;51.30;;;;;;5046694;28;20033;-59
2022/10/14 10:11:39;;;;;;;3.55;1.25;;;21.10;51.40;;;;;;5031511;28;20159;-59
2022/10/14 10:14:28;;;;;;;3.67;1.30;;;21.10;51.40;;;;;;5037117;28;20025;-59
2022/10/14 10:17:08;;;;;;;3.47;1.20;;;21.10;51.50;;;;;;5048754;28;20037;-59
2022/10/14 10:19:42;;;;;;;3.10;1.20;;;21.10;51.60;;;;;;5031546;28;20080;-58
2022/10/14 10:22:23;;;;;;;4.28;1.20;;;21.10;51.80;;;;;;5034489;28;20031;-58
2022/10/14 10:25:07;;;;;;;3.72;1.10;;;21.10;51.90;;;;;;5049717;28;20166;-59
2022/10/14 10:27:37;;;;;;;4.75;1.17;;;21.10;52.00;;;;;;5049953;28;20025;-59
2022/10/14 10:30:31;;;;;;;4.55;1.10;;;21.10;52.10;;;;;;5051429;28;20025;-58
2022/10/14 10:33:02;;;;;;;3.75;1.50;;;21.10;52.20;;;;;;5030958;28;20059;-59
2022/10/14 10:35:52;;;;;;;2.58;0.80;;;21.10;52.30;;;;;;5055307;28;20035;-58
2022/10/14 10:38:29;;;;;;;5.38;1.20;;;21.00;52.30;;;;;;5034018;28;20653;-59
2022/10/14 10:41:14;;;;;;;3.83;1.10;;;21.00;52.30;;;;;;5046672;28;20025;-59
2022/10/14 10:44:04;;;;;;;2.85;1.10;;;21.00;52.40;;;;;;5055328;28;20456;-59
2022/10/14 10:46:51;;;;;;;3.75;1.10;;;21.00;52.70;;;;;;5050669;28;20407;-58
2022/10/14 10:49:37;;;;;;;4.28;1.30;;;21.00;52.90;;;;;;5051107;28;20107;-58
2022/10/14 10:52:33;;;;;;;6.55;1.10;;;21.00;52.90;;;;;;5052251;28;20029;-58
2022/10/14 10:55:16;;;;;;;4.72;1.30;;;21.00;53.20;;;;;;5043336;28;20094;-56
2022/10/14 10:57:48;;;;;;;5.63;1.30;;;21.00;53.30;;;;;;5034601;28;20021;-55
2022/10/14 11:00:23;;;;;;;5.05;1.15;;;20.90;53.50;;;;;;5035170;28;20025;-56
2022/10/14 11:03:16;;;;;;;5.50;1.20;;;21.00;53.70;;;;;;5042377;28;20439;-56
2022/10/14 11:05:54;;;;;;;3.10;1.13;;;21.00;53.90;;;;;;5050941;28;20145;-57
2022/10/14 11:12:13;;;;;;;3.97;1.20;;;21.00;53.60;;;;;;5033836;28;20064;-56
2022/10/14 11:15:06;;;;;;;3.80;1.23;;;21.00;54.10;;;;;;5041034;28;20037;-57
2022/10/14 11:17:49;;;;;;;3.35;1.20;;;21.00;54.40;;;;;;5044984;28;20028;-56
2022/10/14 11:20:40;;;;;;;4.45;1.17;;;21.00;54.80;;;;;;5042598;28;20146;-56
2022/10/14 11:23:59;;;;;;;4.78;1.42;;;21.00;55.00;;;;;;5051913;28;20040;-57
2022/10/14 11:26:37;;;;;;;3.70;1.10;;;21.00;54.80;;;;;;5048243;28;20083;-58
2022/10/14 11:29:21;;;;;;;6.57;1.10;;;21.00;54.70;;;;;;5085482;28;20087;-57
2022/10/14 11:31:57;;;;;;;5.95;1.40;;;21.00;54.70;;;;;;5051931;28;20031;-58
2022/10/14 11:34:41;;;;;;;6.47;1.50;;;21.00;54.80;;;;;;5070023;28;20120;-58
2022/10/14 11:37:19;;;;;;;7.15;1.67;;;21.00;55.10;;;;;;5067900;28;20035;-58
2022/10/14 11:40:07;;;;;;;4.10;1.15;;;21.00;55.10;;;;;;5049087;28;20333;-58
2022/10/14 11:43:00;;;;;;;4.72;1.52;;;21.00;55.30;;;;;;5049656;28;20083;-58
2022/10/14 11:45:35;;;;;;;4.47;1.30;;;21.00;55.60;;;;;;5040837;28;20048;-58
2022/10/14 11:48:36;;;;;;;5.53;1.50;;;21.00;55.80;;;;;;5057809;28;20557;-58
2022/10/14 11:51:41;;;;;;;5.07;1.60;;;21.00;55.70;;;;;;5051221;28;20052;-58
2022/10/14 11:54:15;;;;;;;4.63;1.23;;;21.00;56.10;;;;;;5046507;28;20376;-57
2022/10/14 11:57:01;;;;;;;9.18;1.70;;;21.00;56.80;;;;;;5043820;28;20112;-57
2022/10/14 11:59:45;;;;;;;4.68;1.50;;;21.10;56.90;;;;;;5030553;28;20096;-58
2022/10/14 12:02:38;;;;;;;7.82;1.50;;;21.10;56.80;;;;;;5044702;28;20080;-58
2022/10/14 12:05:35;;;;;;;6.75;1.40;;;21.10;56.90;;;;;;5056927;28;20106;-58
2022/10/14 12:08:26;;;;;;;5.68;1.52;;;21.10;57.10;;;;;;5034177;28;20068;-58
2022/10/14 12:11:20;;;;;;;4.70;1.27;;;21.10;57.50;;;;;;5041236;28;20543;-57
2022/10/14 12:13:53;;;;;;;6.32;1.63;;;21.10;57.30;;;;;;5030379;28;20060;-57
2022/10/14 12:16:24;;;;;;;5.85;1.42;;;21.10;57.70;;;;;;5046405;28;20491;-58
2022/10/14 12:18:57;;;;;;;9.82;2.13;;;21.10;57.60;;;;;;5048283;28;20043;-58
2022/10/14 12:22:04;;;;;;;4.93;1.52;;;21.10;57.90;;;;;;5049180;28;20055;-57
2022/10/14 12:24:39;;;;;;;4.80;1.58;;;21.10;57.80;;;;;;5044787;28;20033;-58
2022/10/14 12:27:12;;;;;;;4.85;1.40;;;21.10;57.40;;;;;;5046486;28;20048;-59
2022/10/14 12:29:49;;;;;;;4.72;1.65;;;21.10;57.60;;;;;;5047846;28;20037;-57
2022/10/14 12:32:19;;;;;;;5.07;1.42;;;21.10;58.10;;;;;;5037738;28;20048;-58
2022/10/14 12:34:52;;;;;;;5.82;1.40;;;21.10;58.50;;;;;;5038276;28;20036;-58
2022/10/14 12:37:33;;;;;;;4.55;1.63;;;21.10;58.10;;;;;;5036373;28;20026;-58
2022/10/14 12:40:05;;;;;;;5.53;1.50;;;21.10;59.70;;;;;;5059642;28;20143;-55
2022/10/14 12:42:50;;;;;;;6.38;1.65;;;21.10;60.40;;;;;;5054260;28;20069;-57
2022/10/14 12:45:27;;;;;;;4.47;1.52;;;21.10;60.20;;;;;;5048931;28;20052;-57
2022/10/14 12:48:18;;;;;;;4.88;1.42;;;21.10;59.60;;;;;;5042864;28;20033;-58
2022/10/14 12:50:48;;;;;;;6.68;1.60;;;21.20;60.00;;;;;;5045265;28;20057;-57
2022/10/14 12:53:30;;;;;;;5.88;1.63;;;21.20;59.60;;;;;;5045154;28;20078;-58
2022/10/14 12:56:03;;;;;;;5.90;1.70;;;21.20;59.50;;;;;;5029670;28;20021;-58
2022/10/14 12:58:35;;;;;;;9.30;1.70;;;21.20;59.20;;;;;;5033698;28;20436;-57
2022/10/14 13:01:16;;;;;;;8.65;1.60;;;21.10;58.80;;;;;;5062529;28;20029;-57
2022/10/14 13:03:56;;;;;;;6.65;1.60;;;21.10;58.50;;;;;;5047678;28;20083;-57
2022/10/14 13:06:38;;;;;;;6.68;1.55;;;21.10;58.40;;;;;;5048607;28;20074;-58
2022/10/14 13:09:15;;;;;;;4.45;1.73;;;21.10;58.40;;;;;;5045918;28;20033;-57
2022/10/14 13:12:05;;;;;;;8.02;1.60;;;21.10;58.30;;;;;;5040911;28;20032;-58
2022/10/14 13:14:59;;;;;;;5.93;1.45;;;21.10;58.20;;;;;;5046454;28;20437;-57
2022/10/14 13:17:44;;;;;;;4.13;1.40;;;21.10;58.10;;;;;;5059236;28;20033;-58
2022/10/14 13:20:33;;;;;;;5.55;1.63;;;21.10;58.60;;;;;;5052739;28;20067;-58
2022/10/14 13:23:29;;;;;;;4.82;1.42;;;21.00;58.00;;;;;;5052639;28;20499;-58
2022/10/14 13:26:34;;;;;;;5.22;1.60;;;21.10;58.20;;;;;;5052607;28;20041;-58
2022/10/14 13:29:24;;;;;;;5.53;1.50;;;21.00;58.10;;;;;;5020998;28;20044;-58
2022/10/14 13:32:03;;;;;;;3.80;1.27;;;21.00;58.30;;;;;;5030215;28;20029;-58
2022/10/14 13:35:07;;;;;;;5.00;1.30;;;21.00;58.50;;;;;;5042305;28;20472;-57